sensor_id;sensor_type;location;lat;lon;timestamp;P1;durP1;ratioP1;P2;durP2;ratioP2
55732;SDS011;41637;52.364;9.910;2023-05-10T00:01:11;4.80;;;2.90;;
55732;SDS011;41637;52.364;9.910;2023-05-10T00:03:38;5.70;;;3.30;;
55732;SDS011;41637;52.364;9.910;2023-05-10T00:06:04;5.00;;;2.90;;
55732;SDS011;41637;52.364;9.910;2023-05-10T00:08:31;7.30;;;3.10;;
55732;SDS011;41637;52.364;9.910;2023-05-10T00:10:57;4.00;;;2.80;;
55732;SDS011;41637;52.364;9.910;2023-05-10T00:13:24;6.20;;;2.80;;
55732;SDS011;41637;52.364;9.910;2023-05-10T00:15:50;5.20;;;3.00;;
55732;SDS011;41637;52.364;9.910;2023-05-10T00:18:17;5.10;;;2.90;;
55732;SDS011;41637;52.364;9.910;2023-05-10T00:20:43;4.10;;;2.90;;
55732;SDS011;41637;52.364;9.910;2023-05-10T00:23:12;5.50;;;2.80;;
55732;SDS011;41637;52.364;9.910;2023-05-10T00:25:38;5.00;;;3.20;;
55732;SDS011;41637;52.364;9.910;2023-05-10T00:28:05;5.40;;;3.10;;
55732;SDS011;41637;52.364;9.910;2023-05-10T00:30:31;6.60;;;3.30;;
55732;SDS011;41637;52.364;9.910;2023-05-10T00:32:58;6.20;;;3.40;;
55732;SDS011;41637;52.364;9.910;2023-05-10T00:35:24;5.80;;;3.80;;
55732;SDS011;41637;52.364;9.910;2023-05-10T00:37:52;6.50;;;4.00;;
55732;SDS011;41637;52.364;9.910;2023-05-10T00:40:18;6.70;;;3.90;;
55732;SDS011;41637;52.364;9.910;2023-05-10T00:42:45;5.40;;;3.50;;
55732;SDS011;41637;52.364;9.910;2023-05-10T00:45:11;5.00;;;3.40;;
55732;SDS011;41637;52.364;9.910;2023-05-10T00:47:38;4.90;;;3.20;;
55732;SDS011;41637;52.364;9.910;2023-05-10T00:50:05;6.70;;;3.80;;
55732;SDS011;41637;52.364;9.910;2023-05-10T00:52:32;6.40;;;3.80;;
55732;SDS011;41637;52.364;9.910;2023-05-10T00:54:59;7.30;;;3.70;;
55732;SDS011;41637;52.364;9.910;2023-05-10T00:57:26;6.50;;;3.90;;
55732;SDS011;41637;52.364;9.910;2023-05-10T00:59:53;6.80;;;3.90;;
55732;SDS011;41637;52.364;9.910;2023-05-10T01:02:19;6.00;;;3.50;;
55732;SDS011;41637;52.364;9.910;2023-05-10T01:04:46;7.90;;;3.90;;
55732;SDS011;41637;52.364;9.910;2023-05-10T01:07:13;6.60;;;4.10;;
55732;SDS011;41637;52.364;9.910;2023-05-10T01:09:40;6.10;;;3.80;;
55732;SDS011;41637;52.364;9.910;2023-05-10T01:12:06;6.00;;;4.00;;
55732;SDS011;41637;52.364;9.910;2023-05-10T01:14:33;7.50;;;3.90;;
55732;SDS011;41637;52.364;9.910;2023-05-10T01:17:02;4.80;;;3.90;;
55732;SDS011;41637;52.364;9.910;2023-05-10T01:19:31;7.20;;;4.00;;
55732;SDS011;41637;52.364;9.910;2023-05-10T01:33:09;6.50;;;4.20;;
55732;SDS011;41637;52.364;9.910;2023-05-10T01:40:56;7.80;;;4.50;;
55732;SDS011;41637;52.364;9.910;2023-05-10T01:43:35;6.60;;;4.50;;
55732;SDS011;41637;52.364;9.910;2023-05-10T01:46:09;7.90;;;4.50;;
55732;SDS011;41637;52.364;9.910;2023-05-10T01:48:40;5.60;;;4.20;;
55732;SDS011;41637;52.364;9.910;2023-05-10T01:51:14;7.90;;;4.70;;
55732;SDS011;41637;52.364;9.910;2023-05-10T01:53:46;6.50;;;4.40;;
55732;SDS011;41637;52.364;9.910;2023-05-10T01:56:15;5.90;;;4.50;;
55732;SDS011;41637;52.364;9.910;2023-05-10T01:58:43;7.10;;;4.30;;
55732;SDS011;41637;52.364;9.910;2023-05-10T02:01:13;6.30;;;4.60;;
55732;SDS011;41637;52.364;9.910;2023-05-10T02:03:41;8.40;;;4.70;;
55732;SDS011;41637;52.364;9.910;2023-05-10T02:06:10;6.70;;;4.80;;
55732;SDS011;41637;52.364;9.910;2023-05-10T02:08:38;5.90;;;4.30;;
55732;SDS011;41637;52.364;9.910;2023-05-10T02:11:06;6.70;;;4.80;;
55732;SDS011;41637;52.364;9.910;2023-05-10T02:13:34;6.40;;;4.40;;
55732;SDS011;41637;52.364;9.910;2023-05-10T02:16:03;5.00;;;4.20;;
55732;SDS011;41637;52.364;9.910;2023-05-10T02:18:31;7.40;;;4.80;;
55732;SDS011;41637;52.364;9.910;2023-05-10T02:20:59;6.60;;;5.00;;
55732;SDS011;41637;52.364;9.910;2023-05-10T02:23:27;7.00;;;5.10;;
55732;SDS011;41637;52.364;9.910;2023-05-10T02:25:55;7.80;;;4.70;;
55732;SDS011;41637;52.364;9.910;2023-05-10T02:28:24;7.30;;;5.20;;
55732;SDS011;41637;52.364;9.910;2023-05-10T02:30:53;7.50;;;5.10;;
55732;SDS011;41637;52.364;9.910;2023-05-10T02:33:21;8.10;;;5.30;;
55732;SDS011;41637;52.364;9.910;2023-05-10T02:35:48;7.50;;;5.50;;
55732;SDS011;41637;52.364;9.910;2023-05-10T02:38:16;7.90;;;5.40;;
55732;SDS011;41637;52.364;9.910;2023-05-10T02:40:46;7.50;;;5.20;;
55732;SDS011;41637;52.364;9.910;2023-05-10T02:43:14;7.30;;;5.50;;
55732;SDS011;41637;52.364;9.910;2023-05-10T02:45:42;7.30;;;5.40;;
55732;SDS011;41637;52.364;9.910;2023-05-10T02:48:10;6.60;;;5.00;;
55732;SDS011;41637;52.364;9.910;2023-05-10T02:50:36;7.10;;;5.40;;
55732;SDS011;41637;52.364;9.910;2023-05-10T02:53:11;6.70;;;5.40;;
55732;SDS011;41637;52.364;9.910;2023-05-10T02:55:43;6.90;;;5.40;;
55732;SDS011;41637;52.364;9.910;2023-05-10T02:58:15;8.40;;;5.70;;
55732;SDS011;41637;52.364;9.910;2023-05-10T03:00:41;8.80;;;5.70;;
55732;SDS011;41637;52.364;9.910;2023-05-10T03:03:08;6.80;;;5.30;;
55732;SDS011;41637;52.364;9.910;2023-05-10T03:05:34;8.30;;;5.60;;
55732;SDS011;41637;52.364;9.910;2023-05-10T03:08:01;7.20;;;5.60;;
55732;SDS011;41637;52.364;9.910;2023-05-10T03:10:30;7.10;;;5.50;;
55732;SDS011;41637;52.364;9.910;2023-05-10T03:19:12;7.50;;;5.30;;
55732;SDS011;41637;52.364;9.910;2023-05-10T03:21:38;6.40;;;5.20;;
55732;SDS011;41637;52.364;9.910;2023-05-10T03:24:10;7.20;;;5.50;;
55732;SDS011;41637;52.364;9.910;2023-05-10T03:26:38;7.80;;;5.70;;
55732;SDS011;41637;52.364;9.910;2023-05-10T03:29:06;8.50;;;5.60;;
55732;SDS011;41637;52.364;9.910;2023-05-10T03:31:35;8.90;;;5.80;;
55732;SDS011;41637;52.364;9.910;2023-05-10T03:34:02;6.70;;;5.40;;
55732;SDS011;41637;52.364;9.910;2023-05-10T03:36:28;7.60;;;5.50;;
55732;SDS011;41637;52.364;9.910;2023-05-10T03:38:55;7.90;;;5.70;;
55732;SDS011;41637;52.364;9.910;2023-05-10T03:41:21;7.90;;;5.90;;
55732;SDS011;41637;52.364;9.910;2023-05-10T03:43:48;9.10;;;6.00;;
55732;SDS011;41637;52.364;9.910;2023-05-10T03:46:14;6.50;;;5.60;;
55732;SDS011;41637;52.364;9.910;2023-05-10T03:48:41;7.10;;;5.80;;
55732;SDS011;41637;52.364;9.910;2023-05-10T03:51:08;7.60;;;5.80;;
55732;SDS011;41637;52.364;9.910;2023-05-10T03:53:34;9.20;;;6.10;;
55732;SDS011;41637;52.364;9.910;2023-05-10T03:56:01;8.80;;;6.30;;
55732;SDS011;41637;52.364;9.910;2023-05-10T03:58:28;7.00;;;5.70;;
55732;SDS011;41637;52.364;9.910;2023-05-10T04:00:54;7.70;;;5.70;;
55732;SDS011;41637;52.364;9.910;2023-05-10T04:03:21;7.60;;;5.60;;
55732;SDS011;41637;52.364;9.910;2023-05-10T04:05:48;7.30;;;6.10;;
55732;SDS011;41637;52.364;9.910;2023-05-10T04:08:14;6.70;;;5.90;;
55732;SDS011;41637;52.364;9.910;2023-05-10T04:10:42;7.60;;;5.80;;
55732;SDS011;41637;52.364;9.910;2023-05-10T04:13:09;7.80;;;6.00;;
55732;SDS011;41637;52.364;9.910;2023-05-10T04:15:36;7.90;;;6.10;;
55732;SDS011;41637;52.364;9.910;2023-05-10T04:18:02;8.10;;;6.30;;
55732;SDS011;41637;52.364;9.910;2023-05-10T04:20:32;7.70;;;6.30;;
55732;SDS011;41637;52.364;9.910;2023-05-10T04:22:59;7.30;;;5.90;;
55732;SDS011;41637;52.364;9.910;2023-05-10T04:25:25;7.50;;;6.30;;
55732;SDS011;41637;52.364;9.910;2023-05-10T04:27:52;7.50;;;6.30;;
55732;SDS011;41637;52.364;9.910;2023-05-10T04:30:18;9.10;;;5.90;;
55732;SDS011;41637;52.364;9.910;2023-05-10T04:32:45;7.60;;;6.30;;
55732;SDS011;41637;52.364;9.910;2023-05-10T04:35:11;8.20;;;6.60;;
55732;SDS011;41637;52.364;9.910;2023-05-10T04:37:38;10.30;;;6.30;;
55732;SDS011;41637;52.364;9.910;2023-05-10T04:40:05;8.00;;;6.20;;
55732;SDS011;41637;52.364;9.910;2023-05-10T04:42:32;7.10;;;6.30;;
55732;SDS011;41637;52.364;9.910;2023-05-10T04:44:59;9.10;;;6.20;;
55732;SDS011;41637;52.364;9.910;2023-05-10T04:47:25;8.90;;;6.60;;
55732;SDS011;41637;52.364;9.910;2023-05-10T04:49:52;10.10;;;6.70;;
55732;SDS011;41637;52.364;9.910;2023-05-10T04:52:19;8.20;;;6.40;;
55732;SDS011;41637;52.364;9.910;2023-05-10T04:54:45;8.40;;;6.50;;
55732;SDS011;41637;52.364;9.910;2023-05-10T04:57:12;7.90;;;6.70;;
55732;SDS011;41637;52.364;9.910;2023-05-10T04:59:38;8.80;;;6.70;;
55732;SDS011;41637;52.364;9.910;2023-05-10T05:02:05;7.20;;;6.40;;
55732;SDS011;41637;52.364;9.910;2023-05-10T05:04:32;7.40;;;6.00;;
55732;SDS011;41637;52.364;9.910;2023-05-10T05:06:58;8.10;;;6.10;;
55732;SDS011;41637;52.364;9.910;2023-05-10T05:09:25;7.60;;;6.50;;
55732;SDS011;41637;52.364;9.910;2023-05-10T05:11:51;8.90;;;6.40;;
55732;SDS011;41637;52.364;9.910;2023-05-10T05:14:18;9.10;;;6.50;;
55732;SDS011;41637;52.364;9.910;2023-05-10T05:16:46;7.90;;;6.00;;
55732;SDS011;41637;52.364;9.910;2023-05-10T05:19:13;8.00;;;6.80;;
55732;SDS011;41637;52.364;9.910;2023-05-10T05:21:40;8.60;;;6.10;;
55732;SDS011;41637;52.364;9.910;2023-05-10T05:24:06;8.30;;;6.50;;
55732;SDS011;41637;52.364;9.910;2023-05-10T05:26:34;9.50;;;6.40;;
55732;SDS011;41637;52.364;9.910;2023-05-10T05:29:00;8.90;;;6.40;;
55732;SDS011;41637;52.364;9.910;2023-05-10T05:31:27;10.10;;;6.90;;
55732;SDS011;41637;52.364;9.910;2023-05-10T05:33:54;7.90;;;6.90;;
55732;SDS011;41637;52.364;9.910;2023-05-10T05:36:21;8.70;;;6.70;;
55732;SDS011;41637;52.364;9.910;2023-05-10T05:38:48;7.70;;;6.10;;
55732;SDS011;41637;52.364;9.910;2023-05-10T05:41:14;9.00;;;6.40;;
55732;SDS011;41637;52.364;9.910;2023-05-10T05:43:41;8.10;;;6.10;;
55732;SDS011;41637;52.364;9.910;2023-05-10T05:46:07;9.20;;;7.30;;
55732;SDS011;41637;52.364;9.910;2023-05-10T05:48:34;9.20;;;6.80;;
55732;SDS011;41637;52.364;9.910;2023-05-10T05:51:01;9.20;;;7.30;;
55732;SDS011;41637;52.364;9.910;2023-05-10T05:53:29;7.70;;;6.70;;
55732;SDS011;41637;52.364;9.910;2023-05-10T05:55:56;8.10;;;6.90;;
55732;SDS011;41637;52.364;9.910;2023-05-10T05:58:25;9.10;;;7.00;;
55732;SDS011;41637;52.364;9.910;2023-05-10T06:00:52;9.80;;;7.80;;
55732;SDS011;41637;52.364;9.910;2023-05-10T06:03:19;8.80;;;6.90;;
55732;SDS011;41637;52.364;9.910;2023-05-10T06:05:46;10.50;;;7.20;;
55732;SDS011;41637;52.364;9.910;2023-05-10T06:08:13;10.00;;;6.30;;
55732;SDS011;41637;52.364;9.910;2023-05-10T06:10:39;10.10;;;6.80;;
55732;SDS011;41637;52.364;9.910;2023-05-10T06:13:06;8.80;;;6.70;;
55732;SDS011;41637;52.364;9.910;2023-05-10T06:15:32;7.20;;;6.40;;
55732;SDS011;41637;52.364;9.910;2023-05-10T06:17:59;8.40;;;6.70;;
55732;SDS011;41637;52.364;9.910;2023-05-10T06:20:26;8.70;;;6.80;;
55732;SDS011;41637;52.364;9.910;2023-05-10T06:22:53;7.20;;;6.40;;
55732;SDS011;41637;52.364;9.910;2023-05-10T06:25:19;7.40;;;6.10;;
55732;SDS011;41637;52.364;9.910;2023-05-10T06:27:46;7.60;;;6.30;;
55732;SDS011;41637;52.364;9.910;2023-05-10T06:30:18;7.30;;;5.70;;
55732;SDS011;41637;52.364;9.910;2023-05-10T06:32:45;9.20;;;6.40;;
55732;SDS011;41637;52.364;9.910;2023-05-10T06:35:12;8.20;;;6.10;;
55732;SDS011;41637;52.364;9.910;2023-05-10T06:37:39;7.80;;;5.90;;
55732;SDS011;41637;52.364;9.910;2023-05-10T06:40:06;7.90;;;6.10;;
55732;SDS011;41637;52.364;9.910;2023-05-10T06:42:33;8.20;;;5.70;;
55732;SDS011;41637;52.364;9.910;2023-05-10T06:44:59;7.90;;;5.80;;
55732;SDS011;41637;52.364;9.910;2023-05-10T06:47:26;7.80;;;6.00;;
55732;SDS011;41637;52.364;9.910;2023-05-10T06:49:52;8.50;;;5.90;;
55732;SDS011;41637;52.364;9.910;2023-05-10T06:52:19;6.80;;;5.60;;
55732;SDS011;41637;52.364;9.910;2023-05-10T06:54:45;8.00;;;5.60;;
55732;SDS011;41637;52.364;9.910;2023-05-10T06:57:12;6.50;;;5.20;;
55732;SDS011;41637;52.364;9.910;2023-05-10T06:59:56;7.20;;;5.30;;
55732;SDS011;41637;52.364;9.910;2023-05-10T07:02:23;7.20;;;5.90;;
55732;SDS011;41637;52.364;9.910;2023-05-10T07:04:50;6.90;;;5.30;;
55732;SDS011;41637;52.364;9.910;2023-05-10T07:07:18;7.80;;;5.60;;
55732;SDS011;41637;52.364;9.910;2023-05-10T07:09:45;6.30;;;5.10;;
55732;SDS011;41637;52.364;9.910;2023-05-10T07:12:11;7.90;;;5.50;;
55732;SDS011;41637;52.364;9.910;2023-05-10T07:14:40;6.60;;;5.30;;
55732;SDS011;41637;52.364;9.910;2023-05-10T07:17:08;7.30;;;5.40;;
55732;SDS011;41637;52.364;9.910;2023-05-10T07:19:34;6.30;;;5.50;;
55732;SDS011;41637;52.364;9.910;2023-05-10T07:22:01;7.20;;;5.10;;
55732;SDS011;41637;52.364;9.910;2023-05-10T07:24:27;6.60;;;5.30;;
55732;SDS011;41637;52.364;9.910;2023-05-10T07:26:54;8.00;;;5.30;;
55732;SDS011;41637;52.364;9.910;2023-05-10T07:29:21;5.90;;;5.00;;
55732;SDS011;41637;52.364;9.910;2023-05-10T07:31:47;6.90;;;5.10;;
55732;SDS011;41637;52.364;9.910;2023-05-10T07:34:14;6.70;;;5.30;;
55732;SDS011;41637;52.364;9.910;2023-05-10T07:36:41;6.90;;;5.20;;
55732;SDS011;41637;52.364;9.910;2023-05-10T07:39:07;7.40;;;5.10;;
55732;SDS011;41637;52.364;9.910;2023-05-10T07:41:34;6.40;;;5.30;;
55732;SDS011;41637;52.364;9.910;2023-05-10T07:44:01;7.30;;;5.80;;
55732;SDS011;41637;52.364;9.910;2023-05-10T07:46:27;6.20;;;5.00;;
55732;SDS011;41637;52.364;9.910;2023-05-10T07:48:54;6.10;;;5.20;;
55732;SDS011;41637;52.364;9.910;2023-05-10T07:51:21;6.10;;;5.40;;
55732;SDS011;41637;52.364;9.910;2023-05-10T07:53:48;5.70;;;4.90;;
55732;SDS011;41637;52.364;9.910;2023-05-10T07:58:49;8.00;;;5.70;;
55732;SDS011;41637;52.364;9.910;2023-05-10T08:01:15;6.10;;;5.40;;
55732;SDS011;41637;52.364;9.910;2023-05-10T08:03:42;7.30;;;5.60;;
55732;SDS011;41637;52.364;9.910;2023-05-10T08:06:09;6.40;;;5.60;;
55732;SDS011;41637;52.364;9.910;2023-05-10T08:08:35;6.40;;;5.30;;
55732;SDS011;41637;52.364;9.910;2023-05-10T08:11:02;6.70;;;5.60;;
55732;SDS011;41637;52.364;9.910;2023-05-10T08:13:29;6.60;;;5.50;;
55732;SDS011;41637;52.364;9.910;2023-05-10T08:15:57;6.90;;;5.90;;
55732;SDS011;41637;52.364;9.910;2023-05-10T08:18:24;6.60;;;5.90;;
55732;SDS011;41637;52.364;9.910;2023-05-10T08:20:51;5.80;;;5.10;;
55732;SDS011;41637;52.364;9.910;2023-05-10T08:23:17;8.20;;;5.70;;
55732;SDS011;41637;52.364;9.910;2023-05-10T08:25:44;10.00;;;6.10;;
55732;SDS011;41637;52.364;9.910;2023-05-10T08:28:11;6.70;;;5.10;;
55732;SDS011;41637;52.364;9.910;2023-05-10T08:30:37;7.50;;;4.90;;
55732;SDS011;41637;52.364;9.910;2023-05-10T08:33:04;6.20;;;4.80;;
55732;SDS011;41637;52.364;9.910;2023-05-10T08:35:31;5.10;;;4.00;;
55732;SDS011;41637;52.364;9.910;2023-05-10T08:37:59;4.10;;;3.20;;
55732;SDS011;41637;52.364;9.910;2023-05-10T08:40:26;5.00;;;3.40;;
55732;SDS011;41637;52.364;9.910;2023-05-10T08:43:04;4.80;;;3.00;;
55732;SDS011;41637;52.364;9.910;2023-05-10T08:45:39;4.40;;;3.10;;
55732;SDS011;41637;52.364;9.910;2023-05-10T08:48:08;3.60;;;2.70;;
55732;SDS011;41637;52.364;9.910;2023-05-10T08:50:36;3.20;;;2.60;;
55732;SDS011;41637;52.364;9.910;2023-05-10T08:53:05;3.20;;;2.20;;
55732;SDS011;41637;52.364;9.910;2023-05-10T08:55:35;3.30;;;2.10;;
55732;SDS011;41637;52.364;9.910;2023-05-10T08:58:06;2.40;;;1.70;;
55732;SDS011;41637;52.364;9.910;2023-05-10T09:00:33;2.70;;;1.70;;
55732;SDS011;41637;52.364;9.910;2023-05-10T09:03:02;2.40;;;1.40;;
55732;SDS011;41637;52.364;9.910;2023-05-10T09:05:30;2.10;;;1.20;;
55732;SDS011;41637;52.364;9.910;2023-05-10T09:07:57;2.00;;;1.30;;
55732;SDS011;41637;52.364;9.910;2023-05-10T09:10:26;1.90;;;1.10;;
55732;SDS011;41637;52.364;9.910;2023-05-10T09:12:55;2.30;;;1.20;;
55732;SDS011;41637;52.364;9.910;2023-05-10T09:15:24;1.90;;;1.00;;
55732;SDS011;41637;52.364;9.910;2023-05-10T09:17:52;2.10;;;1.10;;
55732;SDS011;41637;52.364;9.910;2023-05-10T09:20:19;1.70;;;1.30;;
55732;SDS011;41637;52.364;9.910;2023-05-10T09:22:45;2.20;;;1.40;;
55732;SDS011;41637;52.364;9.910;2023-05-10T09:25:13;2.60;;;1.70;;
55732;SDS011;41637;52.364;9.910;2023-05-10T09:27:45;2.50;;;1.60;;
55732;SDS011;41637;52.364;9.910;2023-05-10T09:30:17;2.30;;;1.50;;
55732;SDS011;41637;52.364;9.910;2023-05-10T09:32:51;2.00;;;1.50;;
55732;SDS011;41637;52.364;9.910;2023-05-10T09:35:19;2.80;;;1.60;;
55732;SDS011;41637;52.364;9.910;2023-05-10T09:37:49;2.40;;;1.80;;
55732;SDS011;41637;52.364;9.910;2023-05-10T09:40:18;2.20;;;1.60;;
55732;SDS011;41637;52.364;9.910;2023-05-10T09:45:25;1.80;;;1.30;;
55732;SDS011;41637;52.364;9.910;2023-05-10T09:47:53;1.60;;;1.30;;
55732;SDS011;41637;52.364;9.910;2023-05-10T09:50:20;3.00;;;1.40;;
55732;SDS011;41637;52.364;9.910;2023-05-10T09:52:54;2.00;;;1.60;;
55732;SDS011;41637;52.364;9.910;2023-05-10T09:55:25;2.30;;;1.70;;
55732;SDS011;41637;52.364;9.910;2023-05-10T09:58:04;3.20;;;2.00;;
55732;SDS011;41637;52.364;9.910;2023-05-10T10:00:36;2.70;;;1.70;;
55732;SDS011;41637;52.364;9.910;2023-05-10T10:03:04;2.60;;;1.80;;
55732;SDS011;41637;52.364;9.910;2023-05-10T10:05:32;1.90;;;1.50;;
55732;SDS011;41637;52.364;9.910;2023-05-10T10:08:02;2.60;;;1.90;;
55732;SDS011;41637;52.364;9.910;2023-05-10T10:10:30;2.50;;;1.70;;
55732;SDS011;41637;52.364;9.910;2023-05-10T10:12:58;2.80;;;1.60;;
55732;SDS011;41637;52.364;9.910;2023-05-10T10:15:26;2.60;;;1.50;;
55732;SDS011;41637;52.364;9.910;2023-05-10T10:17:53;3.00;;;1.70;;
55732;SDS011;41637;52.364;9.910;2023-05-10T10:20:21;2.80;;;1.70;;
55732;SDS011;41637;52.364;9.910;2023-05-10T10:22:48;2.60;;;1.60;;
55732;SDS011;41637;52.364;9.910;2023-05-10T10:25:16;2.80;;;2.10;;
55732;SDS011;41637;52.364;9.910;2023-05-10T10:30:23;3.60;;;1.90;;
55732;SDS011;41637;52.364;9.910;2023-05-10T10:36:05;3.10;;;2.20;;
55732;SDS011;41637;52.364;9.910;2023-05-10T10:39:16;2.90;;;2.20;;
55732;SDS011;41637;52.364;9.910;2023-05-10T10:49:33;3.00;;;2.30;;
55732;SDS011;41637;52.364;9.910;2023-05-10T10:54:53;3.70;;;2.20;;
55732;SDS011;41637;52.364;9.910;2023-05-10T10:57:25;4.20;;;2.30;;
55732;SDS011;41637;52.364;9.910;2023-05-10T11:00:17;2.70;;;1.90;;
55732;SDS011;41637;52.364;9.910;2023-05-10T11:03:09;4.70;;;2.10;;
55732;SDS011;41637;52.364;9.910;2023-05-10T11:05:48;2.90;;;1.90;;
55732;SDS011;41637;52.364;9.910;2023-05-10T11:11:13;4.00;;;2.10;;
55732;SDS011;41637;52.364;9.910;2023-05-10T11:13:44;3.30;;;2.10;;
55732;SDS011;41637;52.364;9.910;2023-05-10T11:16:19;2.80;;;2.00;;
55732;SDS011;41637;52.364;9.910;2023-05-10T11:19:02;4.10;;;2.00;;
55732;SDS011;41637;52.364;9.910;2023-05-10T11:21:31;3.10;;;1.90;;
55732;SDS011;41637;52.364;9.910;2023-05-10T11:23:59;4.30;;;1.90;;
55732;SDS011;41637;52.364;9.910;2023-05-10T11:26:30;3.00;;;1.70;;
55732;SDS011;41637;52.364;9.910;2023-05-10T11:28:59;4.20;;;1.80;;
55732;SDS011;41637;52.364;9.910;2023-05-10T11:31:27;2.90;;;1.70;;
55732;SDS011;41637;52.364;9.910;2023-05-10T11:33:55;3.50;;;1.80;;
55732;SDS011;41637;52.364;9.910;2023-05-10T11:36:29;2.80;;;1.50;;
55732;SDS011;41637;52.364;9.910;2023-05-10T11:38:59;3.00;;;1.70;;
55732;SDS011;41637;52.364;9.910;2023-05-10T11:41:27;2.60;;;1.40;;
55732;SDS011;41637;52.364;9.910;2023-05-10T11:43:55;2.90;;;1.60;;
55732;SDS011;41637;52.364;9.910;2023-05-10T11:46:23;3.30;;;1.70;;
55732;SDS011;41637;52.364;9.910;2023-05-10T11:48:53;2.30;;;1.20;;
55732;SDS011;41637;52.364;9.910;2023-05-10T11:51:26;3.20;;;1.50;;
55732;SDS011;41637;52.364;9.910;2023-05-10T11:53:54;3.50;;;1.60;;
55732;SDS011;41637;52.364;9.910;2023-05-10T11:56:21;3.40;;;1.80;;
55732;SDS011;41637;52.364;9.910;2023-05-10T11:58:54;3.00;;;1.80;;
55732;SDS011;41637;52.364;9.910;2023-05-10T12:01:22;3.60;;;1.50;;
55732;SDS011;41637;52.364;9.910;2023-05-10T12:03:54;2.70;;;1.50;;
55732;SDS011;41637;52.364;9.910;2023-05-10T12:06:26;3.10;;;1.90;;
55732;SDS011;41637;52.364;9.910;2023-05-10T12:08:54;4.10;;;2.00;;
55732;SDS011;41637;52.364;9.910;2023-05-10T12:11:24;3.00;;;1.90;;
55732;SDS011;41637;52.364;9.910;2023-05-10T12:13:51;3.00;;;1.90;;
55732;SDS011;41637;52.364;9.910;2023-05-10T12:16:19;4.30;;;2.00;;
55732;SDS011;41637;52.364;9.910;2023-05-10T12:18:55;3.50;;;1.60;;
55732;SDS011;41637;52.364;9.910;2023-05-10T12:21:24;4.50;;;2.10;;
55732;SDS011;41637;52.364;9.910;2023-05-10T12:23:52;3.70;;;2.30;;
55732;SDS011;41637;52.364;9.910;2023-05-10T12:26:23;3.90;;;2.50;;
55732;SDS011;41637;52.364;9.910;2023-05-10T12:28:55;3.30;;;2.20;;
55732;SDS011;41637;52.364;9.910;2023-05-10T12:31:50;5.90;;;2.20;;
55732;SDS011;41637;52.364;9.910;2023-05-10T12:34:31;3.00;;;2.40;;
55732;SDS011;41637;52.364;9.910;2023-05-10T12:37:02;5.20;;;2.30;;
55732;SDS011;41637;52.364;9.910;2023-05-10T12:39:39;5.50;;;2.50;;
55732;SDS011;41637;52.364;9.910;2023-05-10T12:42:06;6.00;;;2.40;;
55732;SDS011;41637;52.364;9.910;2023-05-10T12:44:32;3.10;;;2.10;;
55732;SDS011;41637;52.364;9.910;2023-05-10T12:46:59;4.00;;;2.10;;
55732;SDS011;41637;52.364;9.910;2023-05-10T12:49:26;4.00;;;2.50;;
55732;SDS011;41637;52.364;9.910;2023-05-10T12:51:52;4.00;;;2.30;;
55732;SDS011;41637;52.364;9.910;2023-05-10T12:54:19;3.80;;;2.40;;
55732;SDS011;41637;52.364;9.910;2023-05-10T12:56:45;3.40;;;1.90;;
55732;SDS011;41637;52.364;9.910;2023-05-10T12:59:12;3.00;;;1.90;;
55732;SDS011;41637;52.364;9.910;2023-05-10T13:01:38;5.10;;;2.50;;
55732;SDS011;41637;52.364;9.910;2023-05-10T13:04:05;4.60;;;2.00;;
55732;SDS011;41637;52.364;9.910;2023-05-10T13:06:31;5.10;;;2.70;;
55732;SDS011;41637;52.364;9.910;2023-05-10T13:08:58;4.20;;;2.50;;
55732;SDS011;41637;52.364;9.910;2023-05-10T13:11:24;3.40;;;2.30;;
55732;SDS011;41637;52.364;9.910;2023-05-10T13:13:51;4.10;;;2.30;;
55732;SDS011;41637;52.364;9.910;2023-05-10T13:16:17;4.00;;;2.30;;
55732;SDS011;41637;52.364;9.910;2023-05-10T13:18:44;3.30;;;1.80;;
55732;SDS011;41637;52.364;9.910;2023-05-10T13:21:10;4.50;;;2.00;;
55732;SDS011;41637;52.364;9.910;2023-05-10T13:23:37;3.60;;;2.20;;
55732;SDS011;41637;52.364;9.910;2023-05-10T13:26:03;3.50;;;2.00;;
55732;SDS011;41637;52.364;9.910;2023-05-10T13:28:30;3.20;;;1.90;;
55732;SDS011;41637;52.364;9.910;2023-05-10T13:30:57;3.00;;;2.00;;
55732;SDS011;41637;52.364;9.910;2023-05-10T13:33:23;1.90;;;1.40;;
55732;SDS011;41637;52.364;9.910;2023-05-10T13:35:50;4.40;;;2.00;;
55732;SDS011;41637;52.364;9.910;2023-05-10T13:38:19;2.50;;;1.70;;
55732;SDS011;41637;52.364;9.910;2023-05-10T13:40:47;3.30;;;1.80;;
55732;SDS011;41637;52.364;9.910;2023-05-10T13:43:14;2.60;;;1.70;;
55732;SDS011;41637;52.364;9.910;2023-05-10T13:45:41;2.30;;;1.50;;
55732;SDS011;41637;52.364;9.910;2023-05-10T13:48:08;3.30;;;1.50;;
55732;SDS011;41637;52.364;9.910;2023-05-10T13:50:34;3.10;;;1.70;;
55732;SDS011;41637;52.364;9.910;2023-05-10T13:53:01;3.50;;;1.60;;
55732;SDS011;41637;52.364;9.910;2023-05-10T13:55:27;4.00;;;2.10;;
55732;SDS011;41637;52.364;9.910;2023-05-10T13:57:54;3.70;;;2.20;;
55732;SDS011;41637;52.364;9.910;2023-05-10T14:00:21;3.30;;;2.20;;
55732;SDS011;41637;52.364;9.910;2023-05-10T14:02:47;3.30;;;2.00;;
55732;SDS011;41637;52.364;9.910;2023-05-10T14:05:14;3.00;;;1.90;;
55732;SDS011;41637;52.364;9.910;2023-05-10T14:07:43;3.60;;;1.70;;
55732;SDS011;41637;52.364;9.910;2023-05-10T14:10:09;2.80;;;1.50;;
55732;SDS011;41637;52.364;9.910;2023-05-10T14:12:36;2.90;;;1.40;;
55732;SDS011;41637;52.364;9.910;2023-05-10T14:15:03;2.30;;;1.40;;
55732;SDS011;41637;52.364;9.910;2023-05-10T14:17:32;3.20;;;1.50;;
55732;SDS011;41637;52.364;9.910;2023-05-10T14:19:58;3.80;;;1.50;;
55732;SDS011;41637;52.364;9.910;2023-05-10T14:22:25;2.70;;;1.30;;
55732;SDS011;41637;52.364;9.910;2023-05-10T14:24:51;2.30;;;1.40;;
55732;SDS011;41637;52.364;9.910;2023-05-10T14:27:18;2.30;;;1.30;;
55732;SDS011;41637;52.364;9.910;2023-05-10T14:29:44;2.70;;;1.20;;
55732;SDS011;41637;52.364;9.910;2023-05-10T14:32:11;3.10;;;1.20;;
55732;SDS011;41637;52.364;9.910;2023-05-10T14:34:38;2.40;;;1.10;;
55732;SDS011;41637;52.364;9.910;2023-05-10T14:37:04;2.40;;;1.30;;
55732;SDS011;41637;52.364;9.910;2023-05-10T14:39:31;2.50;;;1.40;;
55732;SDS011;41637;52.364;9.910;2023-05-10T14:41:57;2.70;;;1.60;;
55732;SDS011;41637;52.364;9.910;2023-05-10T14:44:24;2.60;;;1.50;;
55732;SDS011;41637;52.364;9.910;2023-05-10T14:46:51;3.40;;;1.50;;
55732;SDS011;41637;52.364;9.910;2023-05-10T14:49:18;3.50;;;2.20;;
55732;SDS011;41637;52.364;9.910;2023-05-10T14:51:44;6.10;;;4.50;;
55732;SDS011;41637;52.364;9.910;2023-05-10T14:54:11;6.20;;;4.60;;
55732;SDS011;41637;52.364;9.910;2023-05-10T14:56:38;7.50;;;4.50;;
55732;SDS011;41637;52.364;9.910;2023-05-10T14:59:04;7.20;;;4.90;;
55732;SDS011;41637;52.364;9.910;2023-05-10T15:01:31;7.20;;;4.90;;
55732;SDS011;41637;52.364;9.910;2023-05-10T15:03:59;8.10;;;5.70;;
55732;SDS011;41637;52.364;9.910;2023-05-10T15:06:30;6.60;;;4.80;;
55732;SDS011;41637;52.364;9.910;2023-05-10T15:08:57;7.00;;;5.30;;
55732;SDS011;41637;52.364;9.910;2023-05-10T15:11:24;7.50;;;5.40;;
55732;SDS011;41637;52.364;9.910;2023-05-10T15:13:51;7.90;;;5.40;;
55732;SDS011;41637;52.364;9.910;2023-05-10T15:16:17;6.40;;;5.10;;
55732;SDS011;41637;52.364;9.910;2023-05-10T15:18:44;7.20;;;5.50;;
55732;SDS011;41637;52.364;9.910;2023-05-10T15:21:11;8.40;;;5.50;;
55732;SDS011;41637;52.364;9.910;2023-05-10T15:23:39;8.30;;;5.70;;
55732;SDS011;41637;52.364;9.910;2023-05-10T15:26:05;8.80;;;5.80;;
55732;SDS011;41637;52.364;9.910;2023-05-10T15:28:32;8.30;;;5.80;;
55732;SDS011;41637;52.364;9.910;2023-05-10T15:30:59;6.60;;;5.10;;
55732;SDS011;41637;52.364;9.910;2023-05-10T15:33:26;8.20;;;5.20;;
55732;SDS011;41637;52.364;9.910;2023-05-10T15:35:53;7.70;;;5.60;;
55732;SDS011;41637;52.364;9.910;2023-05-10T15:38:20;7.90;;;5.40;;
55732;SDS011;41637;52.364;9.910;2023-05-10T15:40:46;7.80;;;5.40;;